Новый

Карта отелей и гостиниц, располагающихся рядом с аэропортом Новый :

Новый
Хабаровск
Хабаровский край 48° 31' 41.9988" N, 135° 11' 17.9412" E
Код аэродрома ИКАО
UHHH
Код аэродрома RU
УХХХ
Координаты
N48.52833° E135.18832°
Превышение над уровнем моря
74
Основная полоса
05R/23L
Курс магнитный
053,8/233,8
Длина основной ВПП
4000
Ширина основной ВПП
60
Покрытие основной ВПП
Твёрдое
Освещение ВПП
Постоянное
Тип: 
Аэродром
Класс аэродрома: 
Международный
Принадлежность: 
ГА
Статус: 
Действующий
Сайт: 
http://www.airkhv.ru/
Страна: 
Россия
Регион: 
Хабаровский край
Город: 
Хабаровск
Дополнительная информация: 
Военный индекс: ЬХХХ/XHHH. Оператор: ОАО «Хабаровский аэропорт». Нкр.=(600)м.
Схемы аэропортов: 
Погода: 

Авиационная погода в аэропорту Новый

Регион: 
Погода METAR: 
UHHH 291030Z 25002MPS 9999 SCT030CB 19/12 Q1003 R23R/090060 NOSIG RMK QFE746/0995
Время наблюдения
2022-05-29T10:30:00Z
Температура C
19.0
Точка росы
12.0
Направление ветра
250
Скорость ветра (узлы)
4
Метео видимость
6.21
Облачность
SCT
Нижняя граница облачности (футы)
3000
Явления погоды
Условия полета
VFR
Аэропорт подробнее: 
SCT – разбросанная отдельная облачность;


Найти трансфер

С помощью этой формы Вы можете найти трансфер из аэропорта Новый в город, аэропорт или вокзал:

Погода в аэропортах:

Авиационная погода в Миккели

Регион: 
Погода METAR: 
EFMI 291020Z AUTO 19006KT 160V230 9999 -SHRA //////CB 13/10 Q1004
Время наблюдения
2022-05-29T10:20:00Z
Температура C
13.0
Точка росы
10.0
Направление ветра
190
Скорость ветра (узлы)
6
Метео видимость
6.21
Облачность
Нижняя граница облачности (футы)
Явления погоды
-SHRA
Условия полета
-SHRA - слабый ливневой дождь;

Авиационная погода в Куопио

Регион: 
Погода METAR: 
EFKU 291020Z AUTO 21003KT 050V140 9999 VCSH FEW033 //////CB 15/10 Q1004
Время наблюдения
2022-05-29T10:20:00Z
Температура C
15.0
Точка росы
10.0
Направление ветра
210
Скорость ветра (узлы)
3
Метео видимость
6.21
Облачность
FEW
Нижняя граница облачности (футы)
3300
Явления погоды
VCSH
Условия полета
VFR
FEW – незначительная облачность;

Авиационная погода в Москва - Домодедово

Погода METAR: 
UUDD 291030Z 25006G11MPS 170V270 9999 -SHRA BKN050CB 12/05 Q1012 R32L/290045 NOSIG
Время наблюдения
2022-05-29T10:30:00Z
Температура C
12.0
Точка росы
5.0
Направление ветра
250
Скорость ветра (узлы)
12
Метео видимость
6.21
Облачность
BKN
Нижняя граница облачности (футы)
5000
Явления погоды
-SHRA
Условия полета
VFR
Аэропорт подробнее: 
BKN – значительная (рассеянная, разорванная) облачность;
-SHRA - слабый ливневой дождь;

Авиационная погода в аэропорту Имени Алексея Леонова

Регион: 
Погода METAR: 
UNEE 291030Z 29002MPS 7000 -RA BKN049 14/12 Q1011 R23/290155 NOSIG RMK QFE735
Время наблюдения
2022-05-29T10:30:00Z
Температура C
14.0
Точка росы
12.0
Направление ветра
290
Скорость ветра (узлы)
4
Метео видимость
4.35
Облачность
BKN
Нижняя граница облачности (футы)
4900
Явления погоды
-RA
Условия полета
MVFR
Аэропорт подробнее: 
BKN – значительная (рассеянная, разорванная) облачность;
-RA - слабый дождь;